createdAt,value
2023-03-06T00:02:19.350Z,135.47
2023-03-06T00:04:47.324Z,78.83
2023-03-06T00:07:16.599Z,141.37
2023-03-06T00:09:44.592Z,146.40
2023-03-06T00:12:12.547Z,147.70
2023-03-06T00:14:40.511Z,136.70
2023-03-06T00:17:08.450Z,98.73
2023-03-06T00:19:36.429Z,129.43
2023-03-06T00:22:04.473Z,110.73
2023-03-06T00:24:33.785Z,162.27
2023-03-06T00:27:01.704Z,113.13
2023-03-06T00:29:29.666Z,95.13
2023-03-06T00:31:57.657Z,109.60
2023-03-06T00:34:25.995Z,132.90
2023-03-06T00:36:54.401Z,130.43
2023-03-06T00:39:23.531Z,110.67
2023-03-06T00:41:52.833Z,134.03
2023-03-06T00:44:20.784Z,122.90
2023-03-06T00:46:48.717Z,88.87
2023-03-06T00:49:16.684Z,98.77
2023-03-06T00:51:44.616Z,76.87
2023-03-06T00:54:12.560Z,130.17
2023-03-06T00:56:40.554Z,119.37
2023-03-06T00:59:11.825Z,149.37
2023-03-06T01:01:40.043Z,79.30
2023-03-06T01:04:07.998Z,201.00
2023-03-06T01:06:35.989Z,141.30
2023-03-06T01:09:04.623Z,151.63
2023-03-06T01:11:32.790Z,84.23
2023-03-06T01:14:00.819Z,187.03
2023-03-06T01:16:30.243Z,131.67
2023-03-06T01:18:58.205Z,104.37
2023-03-06T01:21:26.836Z,128.60
2023-03-06T01:23:54.832Z,156.67
2023-03-06T01:26:22.922Z,158.57
2023-03-06T01:28:50.905Z,112.50
2023-03-06T01:31:18.918Z,115.27
2023-03-06T01:33:48.237Z,153.73
2023-03-06T01:36:16.596Z,109.83
2023-03-06T01:38:44.735Z,130.50
2023-03-06T01:41:15.705Z,112.33
2023-03-06T01:43:45.592Z,86.30
2023-03-06T01:46:42.146Z,136.07
2023-03-06T01:49:17.202Z,113.13
2023-03-06T01:51:50.292Z,148.60
2023-03-06T01:54:22.530Z,123.93
2023-03-06T01:56:53.724Z,54.90
2023-03-06T01:59:22.827Z,141.93
2023-03-06T02:01:51.440Z,125.90
2023-03-06T02:04:21.532Z,152.43
2023-03-06T02:06:49.868Z,115.70
2023-03-06T02:09:17.933Z,108.60
2023-03-06T02:11:46.388Z,129.93
2023-03-06T02:14:16.737Z,127.40
2023-03-06T02:16:44.928Z,150.87
2023-03-06T02:19:25.530Z,150.83
2023-03-06T02:21:53.631Z,130.70
2023-03-06T02:24:32.365Z,112.27
2023-03-06T02:27:04.730Z,157.33
2023-03-06T02:29:32.883Z,118.17
2023-03-06T02:32:00.918Z,116.60
2023-03-06T02:34:53.048Z,122.67
2023-03-06T02:37:22.484Z,216.70
2023-03-06T02:39:55.565Z,138.37
2023-03-06T02:42:28.855Z,112.80
2023-03-06T02:44:58.609Z,130.97
2023-03-06T02:47:26.708Z,84.60
2023-03-06T02:49:54.728Z,213.07
2023-03-06T02:52:22.725Z,117.33
2023-03-06T02:54:50.735Z,110.90
2023-03-06T02:57:18.707Z,177.13
2023-03-06T02:59:48.038Z,101.33
2023-03-06T03:02:16.044Z,168.50
2023-03-06T03:04:44.055Z,131.53
2023-03-06T03:07:12.058Z,324.60
2023-03-06T03:09:40.031Z,156.10
2023-03-06T03:12:08.877Z,119.30
2023-03-06T03:14:36.857Z,163.87
2023-03-06T03:17:06.586Z,159.10
2023-03-06T03:19:34.557Z,91.00
2023-03-06T03:22:02.526Z,164.43
2023-03-06T03:24:30.508Z,90.73
2023-03-06T03:26:58.507Z,102.07
2023-03-06T03:29:26.712Z,135.20
2023-03-06T03:31:54.654Z,155.13
2023-03-06T03:34:23.976Z,146.97
2023-03-06T03:36:51.911Z,94.20
2023-03-06T03:39:19.980Z,184.20
2023-03-06T03:41:47.961Z,102.93
2023-03-06T03:44:15.945Z,66.17
2023-03-06T03:46:44.109Z,162.40
2023-03-06T03:49:12.133Z,154.37
2023-03-06T03:51:41.777Z,137.13
2023-03-06T03:54:09.830Z,106.73
2023-03-06T03:56:39.951Z,143.87
2023-03-06T03:59:08.131Z,118.67
2023-03-06T04:01:37.735Z,140.17
2023-03-06T04:04:07.360Z,130.17
2023-03-06T04:06:35.312Z,100.13
2023-03-06T04:09:05.326Z,153.47
2023-03-06T04:11:33.301Z,135.63
2023-03-06T04:14:01.301Z,89.57
2023-03-06T04:16:29.309Z,147.93
2023-03-06T04:18:57.320Z,105.27
2023-03-06T04:21:25.276Z,173.23
2023-03-06T04:23:53.286Z,132.13
2023-03-06T04:26:22.747Z,121.07
2023-03-06T04:28:50.707Z,105.93
2023-03-06T04:31:18.672Z,83.87
2023-03-06T04:33:46.614Z,63.80
2023-03-06T04:36:25.580Z,134.80
2023-03-06T04:38:53.606Z,155.63
2023-03-06T04:41:23.389Z,111.70
2023-03-06T04:43:52.006Z,123.63
2023-03-06T04:46:19.995Z,127.43
2023-03-06T04:48:47.952Z,120.37
2023-03-06T04:51:16.448Z,115.93
2023-03-06T04:53:44.402Z,123.97
2023-03-06T04:56:12.447Z,127.30
2023-03-06T04:58:41.976Z,165.07
2023-03-06T05:01:10.103Z,113.63
2023-03-06T05:03:38.024Z,75.03
2023-03-06T05:06:06.444Z,192.53
2023-03-06T05:08:34.391Z,195.93
2023-03-06T05:11:03.170Z,181.80
2023-03-06T05:13:31.720Z,135.90
2023-03-06T05:16:04.993Z,111.17
2023-03-06T05:18:33.540Z,129.40
2023-03-06T05:21:01.899Z,92.03
2023-03-06T05:23:30.746Z,105.30
2023-03-06T05:25:59.101Z,118.83
2023-03-06T05:28:27.058Z,164.43
2023-03-06T05:30:55.013Z,132.73
2023-03-06T05:33:24.584Z,79.97
2023-03-06T05:35:52.607Z,145.73
2023-03-06T05:38:20.597Z,151.30
2023-03-06T05:40:48.565Z,97.47
2023-03-06T05:43:16.704Z,136.67
2023-03-06T05:45:44.875Z,132.10
2023-03-06T05:48:14.389Z,105.07
2023-03-06T05:50:43.916Z,147.80
2023-03-06T05:53:11.882Z,137.87
2023-03-06T05:55:39.989Z,128.00
2023-03-06T05:58:07.911Z,148.93
2023-03-06T06:00:35.929Z,132.10
2023-03-06T06:03:03.919Z,147.60
2023-03-06T06:05:31.879Z,163.10
2023-03-06T06:08:01.155Z,136.03
2023-03-06T06:10:29.191Z,77.83
2023-03-06T06:12:57.162Z,124.80
2023-03-06T06:15:28.002Z,139.77
2023-03-06T06:17:56.175Z,101.40
2023-03-06T06:20:24.322Z,153.83
2023-03-06T06:22:52.415Z,83.27
2023-03-06T06:25:21.759Z,111.23
2023-03-06T06:27:49.705Z,112.53
2023-03-06T06:30:18.271Z,107.27
2023-03-06T06:32:46.270Z,90.33
2023-03-06T06:35:14.261Z,112.27
2023-03-06T06:37:42.219Z,146.37
2023-03-06T06:40:11.321Z,86.27
2023-03-06T06:42:40.740Z,194.00
2023-03-06T06:45:10.411Z,69.00
2023-03-06T06:47:41.229Z,95.07
2023-03-06T06:50:12.845Z,141.50
2023-03-06T06:52:41.184Z,123.40
2023-03-06T06:55:10.412Z,103.10
2023-03-06T06:57:38.486Z,78.63
2023-03-06T07:00:09.849Z,123.43
2023-03-06T07:02:37.929Z,130.77
2023-03-06T07:05:06.485Z,109.17
2023-03-06T07:07:37.058Z,134.73
2023-03-06T07:10:06.517Z,147.43
2023-03-06T07:12:35.141Z,117.03
2023-03-06T07:15:03.716Z,106.80
2023-03-06T07:17:33.555Z,74.93
2023-03-06T07:20:01.537Z,75.57
2023-03-06T07:22:33.871Z,113.53
2023-03-06T07:25:10.319Z,91.97
2023-03-06T07:27:38.304Z,128.57
2023-03-06T07:30:07.029Z,111.00
2023-03-06T07:32:36.396Z,127.27
2023-03-06T07:35:19.444Z,110.43
2023-03-06T07:37:48.732Z,120.53
2023-03-06T07:40:16.878Z,149.57
2023-03-06T07:42:44.995Z,78.13
2023-03-06T07:45:13.490Z,108.90
2023-03-06T07:47:44.002Z,161.43
2023-03-06T07:50:12.921Z,172.23
2023-03-06T07:52:40.892Z,87.87
2023-03-06T07:55:10.336Z,130.33
2023-03-06T07:57:38.460Z,169.60
2023-03-06T08:00:08.925Z,111.97
2023-03-06T08:02:37.276Z,105.73
2023-03-06T08:05:08.242Z,86.93
2023-03-06T08:07:36.726Z,69.87
2023-03-06T08:10:05.075Z,111.03
2023-03-06T08:12:33.529Z,109.83
2023-03-06T08:15:01.516Z,82.67
2023-03-06T08:17:29.615Z,181.93
2023-03-06T08:19:57.760Z,81.57
2023-03-06T08:22:27.284Z,43.77
2023-03-06T08:24:56.364Z,87.07
2023-03-06T08:27:24.430Z,130.20
2023-03-06T08:29:52.588Z,87.20
2023-03-06T08:32:20.620Z,112.57
2023-03-06T08:34:48.630Z,55.00
2023-03-06T08:37:16.679Z,175.97
2023-03-06T08:39:46.216Z,199.67
2023-03-06T08:42:15.942Z,113.27
2023-03-06T08:44:44.217Z,115.60
2023-03-06T08:47:12.213Z,187.77
2023-03-06T08:49:40.631Z,207.40
2023-03-06T08:52:09.264Z,145.80
2023-03-06T08:54:38.672Z,79.80
2023-03-06T08:57:09.181Z,445.87
2023-03-06T08:59:37.980Z,432.10
2023-03-06T09:02:07.635Z,429.77
2023-03-06T09:04:36.057Z,467.63
2023-03-06T09:07:04.029Z,459.20
2023-03-06T09:09:32.008Z,583.93
2023-03-06T09:11:59.974Z,817.30
2023-03-06T09:14:29.401Z,530.83
2023-03-06T09:16:57.452Z,700.43
2023-03-06T09:19:25.479Z,571.53
2023-03-06T09:21:54.072Z,766.50
2023-03-06T09:24:22.038Z,666.40
2023-03-06T09:26:51.601Z,635.97
2023-03-06T09:29:19.764Z,594.87
2023-03-06T09:31:49.401Z,887.03
2023-03-06T09:34:17.755Z,767.47
2023-03-06T09:36:56.417Z,999.90
2023-03-06T09:39:25.957Z,863.13
2023-03-06T09:41:54.955Z,999.90
2023-03-06T09:44:25.972Z,766.67
2023-03-06T09:47:15.600Z,804.87
2023-03-06T09:49:54.624Z,671.87
2023-03-06T09:52:31.812Z,522.53
2023-03-06T09:55:06.940Z,810.57
2023-03-06T09:57:39.251Z,814.47
2023-03-06T10:00:14.657Z,996.23
2023-03-06T10:02:47.374Z,846.90
2023-03-06T10:05:21.416Z,999.90
2023-03-06T10:07:56.387Z,736.57
2023-03-06T10:10:26.836Z,902.33
2023-03-06T10:13:07.103Z,696.07
2023-03-06T10:15:39.464Z,850.47
2023-03-06T10:18:11.437Z,687.33
2023-03-06T10:20:48.545Z,835.37
2023-03-06T10:23:30.167Z,696.13
2023-03-06T10:26:01.822Z,633.87
2023-03-06T10:28:35.367Z,793.10
2023-03-06T10:31:10.600Z,800.60
2023-03-06T10:33:54.371Z,874.00
2023-03-06T10:36:25.437Z,999.90
2023-03-06T10:38:53.710Z,803.90
2023-03-06T10:41:25.897Z,961.87
2023-03-06T10:44:23.493Z,873.13
2023-03-06T10:46:54.146Z,799.73
2023-03-06T10:49:33.112Z,826.93
2023-03-06T10:52:04.307Z,651.97
2023-03-06T10:54:34.488Z,690.90
2023-03-06T10:57:22.269Z,649.23
2023-03-06T10:59:55.743Z,554.73
2023-03-06T11:02:30.174Z,669.23
2023-03-06T11:05:01.435Z,596.40
2023-03-06T11:07:31.239Z,678.20
2023-03-06T11:10:07.614Z,973.97
2023-03-06T11:12:37.226Z,999.90
2023-03-06T11:15:18.818Z,886.10
2023-03-06T11:17:52.980Z,753.07
2023-03-06T11:20:25.087Z,857.33
2023-03-06T11:22:56.437Z,650.37
2023-03-06T11:25:29.247Z,643.40
2023-03-06T11:28:01.407Z,881.00
2023-03-06T11:30:35.882Z,511.47
2023-03-06T11:33:11.109Z,757.10
2023-03-06T11:35:50.550Z,823.03
2023-03-06T11:38:23.502Z,498.60
2023-03-06T11:40:54.961Z,999.90
2023-03-06T11:43:28.061Z,999.90
2023-03-06T11:46:00.602Z,942.20
2023-03-06T11:48:32.957Z,615.93
2023-03-06T11:51:07.939Z,999.90
2023-03-06T11:53:39.016Z,761.80
2023-03-06T11:56:22.714Z,673.43
2023-03-06T11:59:07.767Z,924.67
2023-03-06T12:01:40.025Z,588.53
2023-03-06T12:04:34.727Z,580.70
2023-03-06T12:07:17.425Z,770.67
2023-03-06T12:09:49.269Z,874.20
2023-03-06T12:12:31.576Z,531.20
2023-03-06T12:15:20.777Z,692.63
2023-03-06T12:18:10.252Z,444.60
2023-03-06T12:20:50.531Z,767.27
2023-03-06T12:23:37.505Z,442.20
2023-03-06T12:26:16.141Z,400.83
2023-03-06T12:29:02.784Z,438.60
2023-03-06T12:31:44.945Z,437.77
2023-03-06T12:34:26.668Z,484.30
2023-03-06T12:37:05.946Z,482.83
2023-03-06T12:39:54.421Z,187.70
2023-03-06T12:42:49.833Z,307.20
2023-03-06T12:45:31.872Z,307.90
2023-03-06T12:48:00.601Z,549.80
2023-03-06T12:50:30.735Z,158.03
2023-03-06T12:53:03.118Z,419.50
2023-03-06T12:55:40.693Z,378.93
2023-03-06T12:58:36.428Z,170.33
2023-03-06T13:01:11.486Z,662.47
2023-03-06T13:03:55.967Z,183.43
2023-03-06T13:06:50.806Z,507.00
2023-03-06T13:09:24.107Z,692.53
2023-03-06T13:12:25.741Z,224.63
2023-03-06T13:15:02.052Z,349.97
2023-03-06T13:17:36.625Z,257.27
2023-03-06T13:20:31.569Z,293.63
2023-03-06T13:23:24.198Z,296.10
2023-03-06T13:25:53.727Z,123.23
2023-03-06T13:28:26.996Z,171.90
2023-03-06T13:30:56.099Z,153.23
2023-03-06T13:34:00.891Z,262.43
2023-03-06T13:36:31.792Z,331.97
2023-03-06T13:39:09.983Z,324.63
2023-03-06T13:41:58.334Z,267.47
2023-03-06T13:44:51.643Z,133.83
2023-03-06T13:47:59.127Z,263.47
2023-03-06T13:50:35.914Z,298.77
2023-03-06T13:53:26.399Z,331.13
2023-03-06T13:56:12.195Z,577.47
2023-03-06T13:58:58.248Z,951.10
2023-03-06T14:01:40.293Z,342.63
2023-03-06T14:04:34.447Z,646.20
2023-03-06T14:07:11.891Z,697.20
2023-03-06T14:09:44.339Z,423.57
2023-03-06T14:12:19.942Z,657.57
2023-03-06T14:14:56.201Z,714.83
2023-03-06T14:17:31.130Z,411.03
2023-03-06T14:20:05.406Z,302.37
2023-03-06T14:22:33.425Z,340.37
2023-03-06T14:25:05.908Z,488.67
2023-03-06T14:27:43.158Z,560.50
2023-03-06T14:30:16.770Z,250.63
2023-03-06T14:32:45.007Z,174.33
2023-03-06T14:35:27.185Z,386.73
2023-03-06T14:37:58.945Z,318.30
2023-03-06T14:40:32.036Z,213.57
2023-03-06T14:43:21.245Z,309.30
2023-03-06T14:45:56.169Z,349.93
2023-03-06T14:48:25.257Z,211.60
2023-03-06T14:50:55.775Z,375.37
2023-03-06T14:53:27.818Z,412.20
2023-03-06T14:55:58.010Z,423.07
2023-03-06T14:58:32.213Z,448.50
2023-03-06T15:01:04.786Z,188.53
2023-03-06T15:03:42.723Z,353.67
2023-03-06T15:06:15.244Z,438.77
2023-03-06T15:08:46.663Z,192.20
2023-03-06T15:11:14.702Z,223.97
2023-03-06T15:13:42.647Z,314.27
2023-03-06T15:16:29.987Z,287.97
2023-03-06T15:19:00.005Z,102.70
2023-03-06T15:21:30.531Z,317.70
2023-03-06T15:23:59.677Z,282.90
2023-03-06T15:26:31.691Z,369.03
2023-03-06T15:29:09.013Z,599.40
2023-03-06T15:31:40.490Z,704.77
2023-03-06T15:34:27.770Z,352.70
2023-03-06T15:36:57.675Z,650.47
2023-03-06T15:39:35.019Z,722.07
2023-03-06T15:42:08.353Z,418.60
2023-03-06T15:44:36.454Z,480.10
2023-03-06T15:47:09.478Z,725.33
2023-03-06T15:49:38.572Z,715.37
2023-03-06T15:52:06.815Z,393.23
2023-03-06T15:54:34.994Z,387.57
2023-03-06T15:57:06.370Z,289.73
2023-03-06T15:59:42.255Z,469.83
2023-03-06T16:02:18.285Z,188.53
2023-03-06T16:04:46.870Z,187.67
2023-03-06T16:07:15.573Z,218.00
2023-03-06T16:09:44.230Z,160.87
2023-03-06T16:12:17.452Z,790.60
2023-03-06T16:14:45.806Z,243.50
2023-03-06T16:17:15.686Z,390.97
2023-03-06T16:19:44.137Z,232.50
2023-03-06T16:22:12.349Z,372.53
2023-03-06T16:24:41.257Z,313.40
2023-03-06T16:27:17.527Z,205.00
2023-03-06T16:29:45.699Z,436.07
2023-03-06T16:32:15.108Z,427.87
2023-03-06T16:34:43.114Z,251.27
2023-03-06T16:37:13.880Z,214.03
2023-03-06T16:39:41.890Z,798.53
2023-03-06T16:42:10.070Z,766.77
2023-03-06T16:44:38.042Z,622.43
2023-03-06T16:47:06.243Z,497.83
2023-03-06T16:49:35.592Z,965.20
2023-03-06T16:52:04.576Z,462.07
2023-03-06T16:54:32.570Z,701.07
2023-03-06T16:57:00.516Z,417.93
2023-03-06T16:59:28.516Z,513.67
2023-03-06T17:01:56.768Z,482.20
2023-03-06T17:04:24.729Z,491.57
2023-03-06T17:06:54.044Z,249.90
2023-03-06T17:09:22.072Z,260.17
2023-03-06T17:11:50.002Z,200.77
2023-03-06T17:14:17.994Z,168.57
2023-03-06T17:16:46.483Z,266.90
2023-03-06T17:19:15.530Z,231.47
2023-03-06T17:21:44.769Z,220.00
2023-03-06T17:24:14.078Z,335.03
2023-03-06T17:26:43.267Z,373.90
2023-03-06T17:29:12.096Z,363.17
2023-03-06T17:31:40.096Z,167.70
2023-03-06T17:34:08.085Z,367.80
2023-03-06T17:36:36.014Z,406.07
2023-03-06T17:39:05.114Z,338.80
2023-03-06T17:41:34.414Z,274.20
2023-03-06T17:44:02.794Z,348.87
2023-03-06T17:46:31.797Z,256.00
2023-03-06T17:48:59.829Z,397.23
2023-03-06T17:51:28.035Z,285.27
2023-03-06T17:53:56.018Z,206.50
2023-03-06T17:56:23.972Z,174.40
2023-03-06T17:58:53.353Z,266.20
2023-03-06T18:01:24.006Z,338.13
2023-03-06T18:03:52.610Z,306.27
2023-03-06T18:06:22.261Z,221.23
2023-03-06T18:08:52.674Z,176.50
2023-03-06T18:11:20.978Z,222.13
2023-03-06T18:13:48.971Z,134.30
2023-03-06T18:16:19.983Z,282.57
2023-03-06T18:18:48.169Z,245.37
2023-03-06T18:21:16.994Z,88.40
2023-03-06T18:23:44.955Z,157.80
2023-03-06T18:26:14.730Z,254.23
2023-03-06T18:28:45.149Z,135.33
2023-03-06T18:31:16.204Z,220.07
2023-03-06T18:33:45.740Z,218.73
2023-03-06T18:36:13.704Z,150.57
2023-03-06T18:38:43.936Z,301.27
2023-03-06T18:41:12.420Z,244.23
2023-03-06T18:43:40.572Z,234.70
2023-03-06T18:46:08.840Z,216.03
2023-03-06T18:48:37.114Z,238.57
2023-03-06T18:51:07.596Z,282.83
2023-03-06T18:53:37.111Z,275.53
2023-03-06T18:56:05.883Z,287.33
2023-03-06T18:58:33.868Z,268.23
2023-03-06T19:01:07.008Z,244.27
2023-03-06T19:03:35.018Z,296.27
2023-03-06T19:06:08.642Z,142.13
2023-03-06T19:08:37.603Z,116.00
2023-03-06T19:11:07.498Z,264.13
2023-03-06T19:13:35.952Z,287.00
2023-03-06T19:16:04.218Z,342.83
2023-03-06T19:18:32.539Z,218.70
2023-03-06T19:21:10.307Z,332.87
2023-03-06T19:23:39.408Z,139.03
2023-03-06T19:26:08.491Z,325.70
2023-03-06T19:28:38.409Z,343.20
2023-03-06T19:31:11.449Z,349.80
2023-03-06T19:33:39.969Z,307.33
2023-03-06T19:36:12.483Z,318.07
2023-03-06T19:38:40.690Z,324.47
2023-03-06T19:41:13.424Z,229.60
2023-03-06T19:43:42.095Z,557.47
2023-03-06T19:46:12.916Z,327.57
2023-03-06T19:48:40.983Z,172.20
2023-03-06T19:51:11.027Z,265.20
2023-03-06T19:53:39.859Z,226.63
2023-03-06T19:56:09.739Z,217.47
2023-03-06T19:58:37.701Z,222.43
2023-03-06T20:01:07.220Z,247.47
2023-03-06T20:03:35.205Z,242.90
2023-03-06T20:06:06.199Z,257.30
2023-03-06T20:08:35.746Z,195.30
2023-03-06T20:11:04.030Z,214.50
2023-03-06T20:13:32.373Z,151.23
2023-03-06T20:16:03.875Z,164.60
2023-03-06T20:18:31.877Z,218.40
2023-03-06T20:21:00.271Z,171.57
2023-03-06T20:23:28.888Z,207.53
2023-03-06T20:26:01.920Z,157.60
2023-03-06T20:28:29.894Z,363.67
2023-03-06T20:30:57.966Z,163.27
2023-03-06T20:33:26.608Z,151.83
2023-03-06T20:35:54.821Z,157.07
2023-03-06T20:38:22.776Z,222.70
2023-03-06T20:40:54.600Z,250.23
2023-03-06T20:43:23.901Z,177.63
2023-03-06T20:45:59.626Z,234.67
2023-03-06T20:48:27.611Z,253.07
2023-03-06T20:51:02.799Z,213.53
2023-03-06T20:53:30.756Z,201.90
2023-03-06T20:55:58.849Z,253.10
2023-03-06T20:58:30.148Z,206.53
2023-03-06T21:00:59.945Z,257.63
2023-03-06T21:03:29.702Z,233.80
2023-03-06T21:05:57.696Z,235.23
2023-03-06T21:08:25.782Z,97.83
2023-03-06T21:10:53.747Z,80.03
2023-03-06T21:13:21.740Z,201.37
2023-03-06T21:15:51.062Z,242.47
2023-03-06T21:18:19.019Z,264.23
2023-03-06T21:20:46.983Z,261.33
2023-03-06T21:23:15.035Z,277.27
2023-03-06T21:25:48.731Z,251.83
2023-03-06T21:28:17.045Z,208.00
2023-03-06T21:30:45.798Z,304.17
2023-03-06T21:33:16.397Z,329.80
2023-03-06T21:35:45.851Z,338.13
2023-03-06T21:38:14.898Z,267.40
2023-03-06T21:40:45.419Z,189.37
2023-03-06T21:43:15.711Z,325.97
2023-03-06T21:45:45.872Z,290.03
2023-03-06T21:48:16.134Z,387.60
2023-03-06T21:50:44.102Z,448.80
2023-03-06T21:53:12.208Z,348.43
2023-03-06T21:55:41.413Z,342.50
2023-03-06T21:58:09.577Z,227.50
2023-03-06T22:00:37.616Z,366.27
2023-03-06T22:03:06.639Z,225.77
2023-03-06T22:05:36.012Z,506.13
2023-03-06T22:08:03.984Z,200.30
2023-03-06T22:10:31.948Z,307.00
2023-03-06T22:12:59.901Z,437.37
2023-03-06T22:15:27.859Z,512.00
2023-03-06T22:17:55.847Z,285.30
2023-03-06T22:20:23.812Z,288.03
2023-03-06T22:22:53.144Z,329.13
2023-03-06T22:25:21.136Z,409.80
2023-03-06T22:27:49.078Z,302.20
2023-03-06T22:30:17.822Z,287.33
2023-03-06T22:32:45.842Z,190.83
2023-03-06T22:35:13.815Z,328.73
2023-03-06T22:37:41.768Z,369.40
2023-03-06T22:40:12.704Z,275.73
2023-03-06T22:42:40.686Z,423.63
2023-03-06T22:45:09.819Z,275.80
2023-03-06T22:47:37.821Z,579.53
2023-03-06T22:50:06.513Z,191.77
2023-03-06T22:52:34.906Z,317.60
2023-03-06T22:55:03.023Z,432.50
2023-03-06T22:57:32.357Z,503.47
2023-03-06T23:00:00.340Z,738.03
2023-03-06T23:02:34.261Z,518.47
2023-03-06T23:05:02.213Z,256.63
2023-03-06T23:07:30.395Z,447.00
2023-03-06T23:09:58.736Z,595.13
2023-03-06T23:12:26.687Z,440.23
2023-03-06T23:14:56.019Z,927.73
2023-03-06T23:17:24.116Z,553.63
2023-03-06T23:19:53.104Z,457.43
2023-03-06T23:22:21.097Z,599.00
2023-03-06T23:24:49.429Z,812.70
2023-03-06T23:27:17.561Z,782.03
2023-03-06T23:29:45.725Z,706.63
2023-03-06T23:32:15.038Z,380.30
2023-03-06T23:34:43.279Z,387.00
2023-03-06T23:37:11.212Z,536.03
2023-03-06T23:39:39.347Z,642.37
2023-03-06T23:42:07.571Z,735.70
2023-03-06T23:44:36.355Z,915.03
2023-03-06T23:47:04.347Z,435.70
2023-03-06T23:49:33.814Z,813.63
2023-03-06T23:52:01.742Z,786.17
2023-03-06T23:54:29.723Z,675.70
2023-03-06T23:56:57.643Z,659.43
2023-03-06T23:59:25.587Z,600.10
